Time;durP1;ratioP1;P1;durP2;ratioP2;P2;SDS_P1;SDS_P2;PMS_P1;PMS_P2;Temp;Humidity;BMP_temperature;BMP_pressure;BME280_temperature;BME280_humidity;BME280_pressure;Samples;Min_cycle;Max_cycle;Signal;HPM_P1;HPM_P2
2021/05/30 14:34:39;;;;;;;9.40;3.75;;;;;;;23.78;50.58;98654.38;1783571;80;23364;-72
2021/05/30 14:37:08;;;;;;;1.25;1.12;;;;;;;23.74;50.19;98661.81;1770848;79;21067;-73
2021/05/30 14:39:36;;;;;;;5.95;4.95;;;;;;;23.60;50.49;98664.53;1772058;79;21106;-72
2021/05/30 14:42:05;;;;;;;109.63;92.65;;;;;;;23.45;49.24;98658.31;1773627;80;20951;-73
2021/05/30 14:44:33;;;;;;;12.25;11.12;;;;;;;23.36;50.31;98653.53;1773118;80;20965;-72
2021/05/30 14:47:01;;;;;;;4.95;3.40;;;;;;;23.22;49.77;98656.27;1772009;80;20953;-73
2021/05/30 14:49:29;;;;;;;4.95;2.40;;;;;;;23.11;50.03;98662.32;1774495;80;21588;-72
2021/05/30 14:51:56;;;;;;;5.05;2.05;;;;;;;22.92;49.50;98655.92;1772948;80;21038;-73
2021/05/30 14:54:23;;;;;;;0.98;0.98;;;;;;;22.87;51.14;98657.18;1778993;80;20991;-73
2021/05/30 14:56:57;;;;;;;3.55;2.00;;;;;;;22.88;50.66;98648.15;1776490;79;20997;-72
2021/05/30 14:59:24;;;;;;;4.33;3.27;;;;;;;22.94;51.06;98646.41;1754546;81;20964;-73
2021/05/30 15:01:52;;;;;;;1.32;1.20;;;;;;;23.07;52.06;98641.96;1754546;81;21639;-72
2021/05/30 15:04:21;;;;;;;3.55;2.33;;;;;;;23.22;52.35;98646.86;1756863;81;21094;-73
2021/05/30 15:06:50;;;;;;;3.15;2.17;;;;;;;23.33;52.94;98647.02;1748492;81;21592;-73
2021/05/30 15:09:20;;;;;;;4.50;2.60;;;;;;;23.43;53.50;98644.09;1756390;80;20952;-73
2021/05/30 15:11:48;;;;;;;4.00;2.52;;;;;;;23.50;52.89;98650.79;1750933;80;21031;-74
2021/05/30 15:14:16;;;;;;;9.50;2.12;;;;;;;23.55;52.02;98643.30;1755469;81;21442;-70
2021/05/30 15:16:44;;;;;;;6.05;3.40;;;;;;;23.59;55.46;98643.95;1747847;80;21740;-70
2021/05/30 15:19:13;;;;;;;642.00;544.40;;;;;;;23.55;61.05;98658.11;1751748;81;20925;-69
2021/05/30 15:21:43;;;;;;;721.05;628.35;;;;;;;23.58;65.93;98658.87;1751447;81;20968;-70
2021/05/30 15:24:11;;;;;;;1429.83;884.37;;;;;;;23.58;69.97;98665.12;1755759;81;20960;-69
2021/05/30 15:26:39;;;;;;;1397.30;879.08;;;;;;;23.56;72.43;98664.36;1751460;81;20988;-69
2021/05/30 15:29:06;;;;;;;673.73;519.35;;;;;;;23.49;73.34;98663.00;1751008;81;21103;-70
2021/05/30 15:31:35;;;;;;;229.50;181.35;;;;;;;23.42;74.19;98671.11;1755217;81;21516;-70
2021/05/30 15:34:03;;;;;;;49.90;41.02;;;;;;;23.28;74.39;98665.77;1754027;81;21372;-71
2021/05/30 15:36:32;;;;;;;13.08;10.93;;;;;;;23.09;74.73;98664.73;1751770;81;20936;-71
2021/05/30 15:38:59;;;;;;;15.15;4.72;;;;;;;22.88;74.62;98665.15;1752640;81;21059;-73
2021/05/30 15:41:29;;;;;;;5.42;4.17;;;;;;;22.68;75.38;98657.91;1751067;81;21521;-70
2021/05/30 15:43:56;;;;;;;3.17;2.87;;;;;;;22.53;76.41;98666.45;1754328;81;21637;-69
2021/05/30 15:46:26;;;;;;;10.98;6.05;;;;;;;22.35;77.30;98675.17;1750977;81;20912;-72
2021/05/30 15:48:57;;;;;;;8.90;8.13;;;;;;;22.18;77.79;98678.00;1750813;81;21044;-71
2021/05/30 15:51:26;;;;;;;4.45;2.65;;;;;;;22.02;79.68;98678.51;1753372;81;20879;-71
2021/05/30 15:54:04;;;;;;;3.12;2.45;;;;;;;21.89;81.72;98679.24;1760760;81;21461;-71
2021/05/30 15:56:34;;;;;;;5.92;4.25;;;;;;;21.84;83.79;98681.81;1760765;81;20916;-72
2021/05/30 15:59:02;;;;;;;19.98;14.53;;;;;;;21.83;85.43;98679.61;1760864;81;20940;-68
2021/05/30 16:01:31;;;;;;;211.55;172.57;;;;;;;21.87;86.65;98687.88;1760546;81;21026;-71
2021/05/30 16:03:59;;;;;;;66.50;52.50;;;;;;;21.95;87.81;98686.07;1760612;81;20997;-70
2021/05/30 16:06:28;;;;;;;535.17;446.45;;;;;;;22.02;87.64;98691.94;1760588;81;21498;-71
2021/05/30 16:08:56;;;;;;;367.32;311.37;;;;;;;22.08;87.73;98695.16;1760548;81;20967;-71
2021/05/30 16:11:25;;;;;;;99.87;83.80;;;;;;;22.08;87.63;98688.91;1760622;81;20932;-72
2021/05/30 16:13:55;;;;;;;153.82;127.30;;;;;;;22.10;87.91;98691.03;1760485;81;21378;-72
2021/05/30 16:16:23;;;;;;;266.17;218.60;;;;;;;22.11;87.99;98694.11;1760483;81;20904;-72
2021/05/30 16:18:53;;;;;;;266.63;228.02;;;;;;;22.10;88.65;98693.72;1760680;81;20916;-71
2021/05/30 16:21:21;;;;;;;158.45;125.58;;;;;;;22.11;88.75;98692.77;1760448;81;20975;-71
2021/05/30 16:23:51;;;;;;;293.48;227.97;;;;;;;22.15;88.24;98696.52;1755863;81;21523;-71
2021/05/30 16:26:19;;;;;;;132.37;102.60;;;;;;;22.13;87.65;98693.05;1753651;81;21099;-72
2021/05/30 16:28:47;;;;;;;163.47;123.18;;;;;;;22.03;88.04;98700.38;1752448;81;21031;-71
2021/05/30 16:31:16;;;;;;;232.60;189.18;;;;;;;21.91;87.90;98704.19;1760166;81;21094;-71
2021/05/30 16:33:45;;;;;;;134.37;97.10;;;;;;;21.82;88.51;98705.20;1758601;81;20916;-69
2021/05/30 16:36:13;;;;;;;118.85;99.85;;;;;;;21.79;88.14;98704.05;1758065;81;20901;-68
2021/05/30 16:38:43;;;;;;;197.50;162.18;;;;;;;21.73;87.75;98702.55;1757990;81;21419;-69
2021/05/30 16:41:11;;;;;;;77.30;60.40;;;;;;;21.62;87.25;98710.37;1754805;81;20940;-68
2021/05/30 16:43:39;;;;;;;226.65;185.40;;;;;;;21.51;87.76;98710.12;1787578;80;21176;-69
2021/05/30 16:46:09;;;;;;;267.57;236.20;;;;;;;21.34;86.97;98713.77;1787399;79;20929;-69
2021/05/30 16:48:37;;;;;;;406.57;342.60;;;;;;;21.19;87.05;98711.41;1787508;79;21524;-68
2021/05/30 16:51:05;;;;;;;146.70;122.20;;;;;;;21.07;88.18;98713.45;1787513;80;21032;-63
2021/05/30 16:53:33;;;;;;;187.70;160.97;;;;;;;21.01;88.56;98707.08;1783087;80;21082;-64
2021/05/30 16:56:02;;;;;;;207.75;161.25;;;;;;;20.93;88.56;98708.84;1756960;81;21650;-70
2021/05/30 16:58:31;;;;;;;229.72;193.57;;;;;;;20.86;90.03;98709.27;1754040;81;20917;-71
2021/05/30 17:01:00;;;;;;;143.40;118.65;;;;;;;20.79;91.27;98715.88;1757298;81;21494;-72
2021/05/30 17:03:28;;;;;;;64.12;51.88;;;;;;;20.69;92.72;98716.86;1742365;81;21001;-72
2021/05/30 17:05:57;;;;;;;12.65;8.73;;;;;;;20.59;92.81;98709.79;1764360;80;21429;-71
2021/05/30 17:08:26;;;;;;;8.08;3.47;;;;;;;20.49;93.56;98717.93;1764183;80;21581;-69
2021/05/30 17:10:55;;;;;;;4.42;2.75;;;;;;;20.41;93.86;98718.34;1763711;80;21475;-68
2021/05/30 17:13:24;;;;;;;3.75;1.80;;;;;;;20.35;94.15;98720.44;1763818;80;21575;-69
2021/05/30 17:15:54;;;;;;;2.00;1.20;;;;;;;20.29;93.79;98723.41;1763666;80;21574;-68
2021/05/30 17:18:24;;;;;;;2.05;1.00;;;;;;;20.22;94.07;98734.05;1763631;80;21561;-67
2021/05/30 17:20:53;;;;;;;1.67;1.27;;;;;;;20.17;95.06;98734.77;1763641;80;21554;-68
2021/05/30 17:23:21;;;;;;;4.17;2.37;;;;;;;20.12;96.65;98737.67;1763335;80;21553;-69
2021/05/30 17:25:51;;;;;;;1.15;1.05;;;;;;;20.06;97.78;98732.64;1763435;80;20909;-69
2021/05/30 17:28:23;;;;;;;1.25;0.95;;;;;;;20.00;98.17;98735.16;1763798;80;20940;-63
2021/05/30 17:30:52;;;;;;;2.35;1.10;;;;;;;19.92;98.67;98737.36;1751172;80;21036;-68
2021/05/30 17:33:21;;;;;;;1.60;0.98;;;;;;;19.86;99.27;98745.66;1763665;80;21072;-69
2021/05/30 17:35:49;;;;;;;1.77;1.35;;;;;;;19.83;99.57;98746.29;1761036;80;20945;-68
2021/05/30 17:38:22;;;;;;;1.15;0.82;;;;;;;19.79;100.00;98740.22;1760889;80;21538;-68
2021/05/30 17:40:49;;;;;;;1.00;0.70;;;;;;;19.74;100.00;98739.59;1761259;80;21479;-69
2021/05/30 17:43:18;;;;;;;3.83;1.10;;;;;;;19.67;100.00;98743.52;1760967;80;21025;-69
2021/05/30 17:45:45;;;;;;;0.70;0.70;;;;;;;19.61;100.00;98743.81;1760936;80;21081;-68
2021/05/30 17:48:16;;;;;;;0.70;0.70;;;;;;;19.51;100.00;98743.36;1760970;80;20905;-68
2021/05/30 17:50:44;;;;;;;6.53;1.02;;;;;;;19.43;100.00;98753.09;1761158;80;20889;-69
2021/05/30 17:53:15;;;;;;;1.42;0.60;;;;;;;19.36;100.00;98755.64;1760934;80;21712;-68
2021/05/30 17:55:43;;;;;;;2.92;0.60;;;;;;;19.31;100.00;98755.47;1760913;80;21542;-69
2021/05/30 17:58:11;;;;;;;1.50;0.70;;;;;;;19.26;100.00;98758.83;1760988;80;21828;-69
2021/05/30 18:00:39;;;;;;;1.62;0.60;;;;;;;19.23;100.00;98755.83;1760998;80;21095;-68
2021/05/30 18:03:08;;;;;;;1.30;0.60;;;;;;;19.16;100.00;98753.92;1760950;80;20893;-69
2021/05/30 18:05:36;;;;;;;0.60;0.60;;;;;;;19.12;100.00;98751.46;1761053;80;20913;-68
2021/05/30 18:08:14;;;;;;;0.98;0.72;;;;;;;19.02;100.00;98756.38;1761298;80;21386;-68
2021/05/30 18:10:46;;;;;;;0.60;0.60;;;;;;;18.96;100.00;98756.66;1761209;80;21503;-69
2021/05/30 18:13:15;;;;;;;2.90;0.80;;;;;;;18.91;100.00;98771.14;1761345;80;21032;-67
2021/05/30 18:15:43;;;;;;;5.75;1.60;;;;;;;18.87;100.00;98771.75;1761724;80;20984;-70
2021/05/30 18:18:13;;;;;;;3.52;1.35;;;;;;;18.83;100.00;98773.70;1783268;79;21015;-65
2021/05/30 18:20:43;;;;;;;1.42;1.10;;;;;;;18.77;100.00;98775.31;1789686;80;21505;-64
2021/05/30 18:23:11;;;;;;;4.20;1.17;;;;;;;18.73;100.00;98776.85;1789729;80;21679;-66
2021/05/30 18:25:44;;;;;;;1.62;0.90;;;;;;;18.66;100.00;98779.41;1789538;79;20960;-65
2021/05/30 18:28:12;;;;;;;2.83;1.00;;;;;;;18.61;100.00;98783.58;1791356;80;21649;-74
2021/05/30 18:30:43;;;;;;;0.93;0.82;;;;;;;18.60;100.00;98793.87;1791536;80;20992;-74
2021/05/30 18:33:11;;;;;;;2.37;0.90;;;;;;;18.55;100.00;98796.74;1791301;80;20905;-73
2021/05/30 18:35:41;;;;;;;1.17;1.07;;;;;;;18.55;100.00;98799.88;1789050;79;21043;-75
2021/05/30 18:38:10;;;;;;;2.42;1.07;;;;;;;18.52;100.00;98805.36;1789240;79;20984;-74
2021/05/30 18:40:42;;;;;;;7.03;1.55;;;;;;;18.50;100.00;98802.75;1787302;79;21470;-68
2021/05/30 18:43:11;;;;;;;9.40;1.82;;;;;;;18.52;100.00;98804.89;1786338;79;20973;-70
2021/05/30 18:45:40;;;;;;;2.22;0.90;;;;;;;18.53;100.00;98805.30;1779982;79;20917;-68
2021/05/30 18:48:10;;;;;;;1.52;1.20;;;;;;;18.51;100.00;98802.29;1772399;81;22013;-69
2021/05/30 18:50:42;;;;;;;1.17;0.82;;;;;;;18.48;100.00;98802.42;1772421;79;21016;-67
2021/05/30 18:53:13;;;;;;;2.65;0.90;;;;;;;18.43;100.00;98803.92;1765600;80;21555;-69
2021/05/30 18:55:41;;;;;;;1.22;1.00;;;;;;;18.40;100.00;98807.20;1757465;80;20998;-68
2021/05/30 18:58:09;;;;;;;3.52;1.30;;;;;;;18.33;100.00;98807.93;1764283;80;21032;-68
2021/05/30 19:00:38;;;;;;;2.10;1.60;;;;;;;18.27;100.00;98812.66;1768109;80;21643;-69
2021/05/30 19:03:06;;;;;;;3.40;1.90;;;;;;;18.21;100.00;98813.33;1769054;80;20901;-69
2021/05/30 19:05:36;;;;;;;3.37;2.60;;;;;;;18.18;100.00;98818.80;1759853;80;20910;-68
2021/05/30 19:08:05;;;;;;;3.15;2.08;;;;;;;18.14;100.00;98826.53;1773073;80;20985;-68
2021/05/30 19:10:35;;;;;;;2.08;1.07;;;;;;;18.12;100.00;98822.19;1783155;80;20904;-66
2021/05/30 19:13:06;;;;;;;5.47;1.20;;;;;;;18.13;100.00;98819.92;1786768;80;20988;-68
2021/05/30 19:15:34;;;;;;;2.90;1.30;;;;;;;18.11;100.00;98822.66;1787729;79;20881;-67
2021/05/30 19:18:05;;;;;;;1.15;0.90;;;;;;;18.09;100.00;98827.19;1787951;79;20881;-68
2021/05/30 19:20:34;;;;;;;2.17;1.10;;;;;;;18.07;100.00;98824.19;1787838;79;21455;-68
2021/05/30 19:23:03;;;;;;;1.62;1.05;;;;;;;18.08;100.00;98819.25;1787634;79;21491;-67
2021/05/30 19:25:31;;;;;;;2.33;1.00;;;;;;;18.06;100.00;98827.78;1787960;79;21100;-68
2021/05/30 19:28:01;;;;;;;2.75;1.07;;;;;;;18.02;100.00;98833.72;1763881;79;20913;-68
2021/05/30 19:30:28;;;;;;;2.65;0.90;;;;;;;18.00;100.00;98833.38;1787765;80;20953;-67
2021/05/30 19:32:56;;;;;;;1.45;0.75;;;;;;;17.97;100.00;98832.13;1787881;79;20889;-67
2021/05/30 19:35:27;;;;;;;1.02;0.78;;;;;;;17.93;100.00;98830.06;1752751;80;20909;-68
2021/05/30 19:37:56;;;;;;;3.40;1.20;;;;;;;17.89;100.00;98829.31;1775888;80;20953;-66
2021/05/30 19:40:24;;;;;;;1.65;0.80;;;;;;;17.85;100.00;98834.84;1757128;80;20880;-68
2021/05/30 19:42:53;;;;;;;1.87;1.30;;;;;;;17.82;100.00;98829.63;1773342;80;21015;-67
2021/05/30 19:45:23;;;;;;;2.77;1.20;;;;;;;17.79;100.00;98830.62;1731307;81;21084;-66
2021/05/30 19:47:52;;;;;;;1.47;1.30;;;;;;;17.79;100.00;98831.09;1758187;80;21574;-67
2021/05/30 19:50:20;;;;;;;2.65;1.45;;;;;;;17.79;100.00;98827.08;1761750;80;21684;-67
2021/05/30 19:52:49;;;;;;;2.12;1.50;;;;;;;17.81;100.00;98830.09;1761613;80;21660;-66
2021/05/30 19:55:16;;;;;;;2.15;1.42;;;;;;;17.79;100.00;98832.42;1761528;80;21067;-68
2021/05/30 19:57:45;;;;;;;7.00;3.92;;;;;;;17.79;100.00;98829.75;1763885;80;21147;-65
2021/05/30 20:00:19;;;;;;;7.55;4.78;;;;;;;17.76;100.00;98832.55;1763094;80;21488;-67
2021/05/30 20:02:47;;;;;;;8.98;4.55;;;;;;;17.74;100.00;98832.61;1767564;80;21063;-68
2021/05/30 20:05:16;;;;;;;4.62;2.47;;;;;;;17.75;100.00;98838.34;1744946;82;21379;-69
2021/05/30 20:07:45;;;;;;;7.00;2.47;;;;;;;17.74;100.00;98830.41;1751134;81;21497;-68
2021/05/30 20:10:20;;;;;;;2.65;2.02;;;;;;;17.74;100.00;98833.94;1764968;81;20964;-69
2021/05/30 20:12:46;;;;;;;2.92;1.50;;;;;;;17.72;100.00;98842.94;1769849;81;21498;-68
2021/05/30 20:15:15;;;;;;;6.17;1.27;;;;;;;17.70;100.00;98851.47;1770830;81;21836;-69
2021/05/30 20:17:43;;;;;;;3.27;1.10;;;;;;;17.57;100.00;98855.91;1770811;81;21430;-68
2021/05/30 20:20:13;;;;;;;1.45;1.10;;;;;;;17.44;100.00;98855.09;1763093;80;21075;-75
2021/05/30 20:22:41;;;;;;;2.70;0.88;;;;;;;17.40;100.00;98864.13;1762676;81;20996;-75
2021/05/30 20:25:11;;;;;;;2.67;1.05;;;;;;;17.34;100.00;98856.37;1765658;81;21545;-75
2021/05/30 20:27:46;;;;;;;3.05;0.82;;;;;;;17.27;100.00;98849.06;1763794;80;21095;-75
2021/05/30 20:30:14;;;;;;;1.00;0.80;;;;;;;17.23;100.00;98849.65;1767576;80;21602;-74
2021/05/30 20:32:42;;;;;;;2.08;0.93;;;;;;;17.22;100.00;98842.58;1767768;80;21466;-75
2021/05/30 20:35:16;;;;;;;1.95;1.00;;;;;;;17.22;100.00;98840.38;1765205;80;21007;-74
2021/05/30 20:37:44;;;;;;;2.05;0.85;;;;;;;17.19;100.00;98839.16;1759875;80;21450;-74
2021/05/30 20:40:12;;;;;;;1.05;0.93;;;;;;;17.16;100.00;98837.94;1762943;80;21105;-74
2021/05/30 20:42:42;;;;;;;1.90;0.57;;;;;;;17.13;100.00;98832.27;1761309;80;21553;-76
2021/05/30 20:45:13;;;;;;;1.37;1.27;;;;;;;17.11;100.00;98835.91;1762835;80;21524;-69
2021/05/30 20:47:44;;;;;;;4.08;1.27;;;;;;;17.09;100.00;98837.30;1759050;80;20873;-72
2021/05/30 20:50:22;;;;;;;1.32;0.98;;;;;;;17.11;100.00;98838.58;1756143;80;20888;-76
2021/05/30 20:52:52;;;;;;;1.55;0.80;;;;;;;17.09;100.00;98837.77;1763902;80;21382;-77
2021/05/30 20:55:24;;;;;;;1.27;0.80;;;;;;;17.06;100.00;98836.09;1766457;81;21410;-62
2021/05/30 20:57:53;;;;;;;3.08;1.10;;;;;;;17.00;100.00;98845.61;1764516;81;20921;-77
2021/05/30 21:00:22;;;;;;;1.60;1.35;;;;;;;16.97;100.00;98850.59;1754604;81;20996;-73
2021/05/30 21:02:54;;;;;;;1.85;1.40;;;;;;;16.97;100.00;98850.59;1764770;81;26581;-72
2021/05/30 21:05:30;;;;;;;2.37;1.50;;;;;;;16.96;100.00;98856.84;1766196;81;21172;-79
2021/05/30 21:08:02;;;;;;;1.75;1.40;;;;;;;16.92;100.00;98853.88;1767805;81;21039;-72
2021/05/30 21:10:54;;;;;;;1.30;1.20;;;;;;;16.92;100.00;98853.88;1760852;80;21497;-75
2021/05/30 21:13:26;;;;;;;2.80;1.07;;;;;;;16.90;100.00;98853.08;1769977;81;20908;-70
2021/05/30 21:16:09;;;;;;;1.30;1.00;;;;;;;16.89;100.00;98848.67;1767349;81;21506;-67
2021/05/30 21:18:38;;;;;;;2.65;1.15;;;;;;;16.88;100.00;98851.39;1769226;80;21306;-69
2021/05/30 21:21:12;;;;;;;2.67;1.00;;;;;;;16.87;100.00;98843.86;1761063;80;21585;-70
2021/05/30 21:23:44;;;;;;;0.80;0.80;;;;;;;16.90;100.00;98847.74;1735234;81;21381;-68
2021/05/30 21:26:15;;;;;;;2.77;1.12;;;;;;;16.89;100.00;98846.47;1761774;81;20913;-70
2021/05/30 21:28:46;;;;;;;1.90;1.32;;;;;;;16.89;100.00;98846.47;1766613;81;20948;-71
2021/05/30 21:31:18;;;;;;;1.10;0.90;;;;;;;16.86;100.00;98837.25;1765292;80;21517;-70
2021/05/30 21:33:54;;;;;;;3.40;1.37;;;;;;;16.82;100.00;98845.82;1752333;80;20941;-69
2021/05/30 21:36:18;;;;;;;11.37;1.17;;;;;;;16.80;100.00;98849.47;1754022;81;20968;-70
2021/05/30 21:38:50;;;;;;;1.10;0.95;;;;;;;16.67;100.00;98842.37;1750262;81;22232;-69
2021/05/30 21:41:19;;;;;;;3.62;1.00;;;;;;;16.58;100.00;98842.21;1742048;81;20983;-69
2021/05/30 21:43:48;;;;;;;2.75;1.00;;;;;;;16.53;100.00;98838.80;1742079;81;21007;-70
2021/05/30 21:46:21;;;;;;;3.87;1.17;;;;;;;16.51;100.00;98839.78;1746546;81;28054;-69
2021/05/30 21:48:50;;;;;;;3.08;1.20;;;;;;;16.48;100.00;98834.57;1771899;81;20984;-70
2021/05/30 21:51:29;;;;;;;1.55;1.07;;;;;;;16.46;100.00;98838.62;1771740;81;21007;-69
2021/05/30 21:54:08;;;;;;;1.67;1.12;;;;;;;16.43;100.00;98834.73;1769023;81;21533;-68
2021/05/30 21:56:41;;;;;;;2.25;1.12;;;;;;;16.44;100.00;98837.80;1767098;81;21046;-69
2021/05/30 21:59:13;;;;;;;1.05;0.95;;;;;;;16.44;100.00;98837.80;1757825;81;20929;-68
2021/05/30 22:01:50;;;;;;;3.08;0.98;;;;;;;16.47;100.00;98843.02;1765724;81;20944;-69
2021/05/30 22:04:45;;;;;;;5.50;1.30;;;;;;;16.46;100.00;98838.62;1772694;81;21051;-70
2021/05/30 22:07:14;;;;;;;5.50;1.00;;;;;;;16.44;100.00;98842.25;1753195;81;21446;-68
2021/05/30 22:09:54;;;;;;;4.75;1.05;;;;;;;16.41;100.00;98837.91;1757626;81;21885;-69
2021/05/30 22:12:49;;;;;;;6.80;1.22;;;;;;;16.40;100.00;98841.95;1757057;81;21090;-69
2021/05/30 22:20:44;;;;;;;3.92;1.40;;;;;;;16.30;100.00;98838.73;1741136;82;20151;-71
2021/05/30 22:23:22;;;;;;;1.98;1.12;;;;;;;16.28;100.00;98839.25;1727646;81;21038;-70
2021/05/30 22:25:50;;;;;;;1.12;0.98;;;;;;;16.25;100.00;98839.36;1752942;81;21502;-70
2021/05/30 22:28:24;;;;;;;6.12;1.32;;;;;;;16.27;100.00;98834.39;1757669;81;20976;-70
2021/05/30 22:31:18;;;;;;;3.12;1.25;;;;;;;16.25;100.00;98840.23;1756033;81;21008;-69
2021/05/30 22:33:40;;;;;;;2.90;1.60;;;;;;;16.22;100.00;98840.33;1730800;81;20856;-69
2021/05/30 22:36:27;;;;;;;2.85;1.37;;;;;;;16.21;100.00;98845.70;1736797;81;21071;-69
2021/05/30 22:41:36;;;;;;;1.80;1.50;;;;;;;16.19;100.00;98848.42;1721166;81;20980;-69
2021/05/30 22:44:13;;;;;;;1.57;1.32;;;;;;;16.19;100.00;98844.42;1726579;81;20901;-68
2021/05/30 22:46:59;;;;;;;2.05;1.30;;;;;;;16.15;100.00;98849.44;1735315;81;21018;-69
2021/05/30 22:49:47;;;;;;;;;;;;;;;;;;;;;
2021/05/30 22:52:23;;;;;;;3.83;1.25;;;;;;;16.11;100.00;98842.94;1680801;83;20909;-69
2021/05/30 22:54:55;;;;;;;2.10;1.20;;;;;;;16.08;100.00;98837.23;1727262;82;20968;-68
2021/05/30 22:57:24;;;;;;;1.30;1.20;;;;;;;16.10;100.00;98837.22;1724676;83;20949;-69
2021/05/30 23:00:17;;;;;;;2.17;1.30;;;;;;;16.10;100.00;98837.22;1724816;82;21415;-69
2021/05/30 23:02:53;;;;;;;4.10;1.35;;;;;;;16.09;100.00;98834.14;1726280;83;21411;-68
2021/05/30 23:05:32;;;;;;;2.10;1.20;;;;;;;16.08;100.00;98843.02;1720017;83;20979;-69
2021/05/30 23:08:05;;;;;;;1.30;1.20;;;;;;;16.06;100.00;98843.06;1733955;82;21410;-70
2021/05/30 23:10:38;;;;;;;2.55;1.35;;;;;;;16.04;100.00;98840.45;1732637;81;20929;-68
2021/05/30 23:13:19;;;;;;;1.82;1.00;;;;;;;16.04;100.00;98837.80;1727126;82;21403;-68
2021/05/30 23:15:55;;;;;;;2.33;1.07;;;;;;;16.05;100.00;98843.52;1710723;82;21495;-69
2021/05/30 23:18:59;;;;;;;2.65;1.10;;;;;;;16.08;100.00;98839.89;1725410;82;21558;-69
2021/05/30 23:21:18;;;;;;;4.75;1.20;;;;;;;16.08;100.00;98838.56;1719109;82;21411;-69
2021/05/30 23:23:59;;;;;;;5.42;1.10;;;;;;;16.07;100.00;98835.49;1731585;82;21449;-69
2021/05/30 23:26:34;;;;;;;1.52;1.22;;;;;;;16.09;100.00;98831.02;1725414;82;20885;-68
2021/05/30 23:29:18;;;;;;;3.77;1.20;;;;;;;16.08;100.00;98828.38;1711177;82;21525;-67
2021/05/30 23:32:00;;;;;;;3.10;1.22;;;;;;;16.06;100.00;98823.98;1730368;82;21024;-68
2021/05/30 23:34:39;;;;;;;1.35;1.20;;;;;;;16.02;100.00;98828.13;1696601;83;20908;-69
2021/05/30 23:37:12;;;;;;;2.45;1.30;;;;;;;15.98;100.00;98830.02;1734815;82;20951;-68
2021/05/30 23:40:12;;;;;;;3.10;1.20;;;;;;;15.92;100.00;98831.55;1711864;82;20932;-68
2021/05/30 23:42:41;;;;;;;5.15;1.12;;;;;;;15.90;100.00;98832.52;1699817;82;20999;-70
2021/05/30 23:45:26;;;;;;;5.28;1.50;;;;;;;15.87;100.00;98830.83;1680043;85;21582;-69
2021/05/30 23:47:59;;;;;;;4.28;1.40;;;;;;;15.83;100.00;98830.52;1682087;82;21489;-69
2021/05/30 23:50:33;;;;;;;4.33;1.32;;;;;;;15.79;100.00;98828.01;1712809;82;20977;-70
2021/05/30 23:53:16;;;;;;;1.80;1.27;;;;;;;15.73;100.00;98823.77;1713704;81;21016;-69
2021/05/30 23:56:01;;;;;;;4.37;1.10;;;;;;;15.68;100.00;98825.70;1729117;81;21504;-69
